createdAt,value
2022-11-09T00:00:06.568Z,34.30
2022-11-09T00:00:39.229Z,34.25
2022-11-09T00:00:53.169Z,35.05
2022-11-09T00:01:06.890Z,34.33
2022-11-09T00:01:19.649Z,32.85
2022-11-09T00:01:32.503Z,32.70
2022-11-09T00:01:45.191Z,33.97
2022-11-09T00:01:57.831Z,34.28
2022-11-09T00:02:11.439Z,34.20
2022-11-09T00:02:24.129Z,34.50
2022-11-09T00:02:40.319Z,34.00
2022-11-09T00:02:55.871Z,32.72
2022-11-09T00:03:10.170Z,32.90
2022-11-09T00:03:22.879Z,33.50
2022-11-09T00:03:35.551Z,34.38
2022-11-09T00:03:49.679Z,35.63
2022-11-09T00:04:03.899Z,36.13
2022-11-09T00:04:16.544Z,36.03
2022-11-09T00:04:29.123Z,35.10
2022-11-09T00:04:41.989Z,35.38
2022-11-09T00:04:54.828Z,36.45
2022-11-09T00:05:09.187Z,38.80
2022-11-09T00:05:21.770Z,39.85
2022-11-09T00:05:34.420Z,40.40
2022-11-09T00:05:54.948Z,40.28
2022-11-09T00:06:08.560Z,40.10
2022-11-09T00:06:21.146Z,39.50
2022-11-09T00:06:34.608Z,38.78
2022-11-09T00:06:47.276Z,41.38
2022-11-09T00:07:01.700Z,43.75
2022-11-09T00:07:14.585Z,45.80
2022-11-09T00:07:30.781Z,46.65
2022-11-09T00:07:43.379Z,45.78
2022-11-09T00:07:55.986Z,44.88
2022-11-09T00:08:10.155Z,44.78
2022-11-09T00:08:22.757Z,44.90
2022-11-09T00:08:37.844Z,45.70
2022-11-09T00:08:51.147Z,45.65
2022-11-09T00:09:07.727Z,45.45
2022-11-09T00:09:21.063Z,47.72
2022-11-09T00:09:33.762Z,47.08
2022-11-09T00:09:46.748Z,44.88
2022-11-09T00:09:59.597Z,43.25
2022-11-09T00:10:13.466Z,42.40
2022-11-09T00:10:26.109Z,42.22
2022-11-09T00:10:38.809Z,42.50
2022-11-09T00:10:51.437Z,42.10
2022-11-09T00:11:05.360Z,41.50
2022-11-09T00:11:18.320Z,40.97
2022-11-09T00:11:30.909Z,40.25
2022-11-09T00:11:44.516Z,39.55
2022-11-09T00:11:57.117Z,39.90
2022-11-09T00:12:09.695Z,39.58
2022-11-09T00:12:22.286Z,40.05
2022-11-09T00:12:34.873Z,39.70
2022-11-09T00:12:47.534Z,39.13
2022-11-09T00:13:01.209Z,39.47
2022-11-09T00:13:13.807Z,39.47
2022-11-09T00:13:26.521Z,38.50
2022-11-09T00:13:40.517Z,37.90
2022-11-09T00:13:53.163Z,37.20
2022-11-09T00:14:06.873Z,36.10
2022-11-09T00:14:19.866Z,35.78
2022-11-09T00:14:32.767Z,36.08
2022-11-09T00:14:45.438Z,35.88
2022-11-09T00:14:58.043Z,35.10
2022-11-09T00:15:11.879Z,34.33
2022-11-09T00:15:24.486Z,33.25
2022-11-09T00:15:38.126Z,32.50
2022-11-09T00:15:50.771Z,32.72
2022-11-09T00:16:03.835Z,32.03
2022-11-09T00:16:18.245Z,31.90
2022-11-09T00:16:30.988Z,32.72
2022-11-09T00:16:43.591Z,34.00
2022-11-09T00:16:57.538Z,33.80
2022-11-09T00:17:10.124Z,33.22
2022-11-09T00:17:22.755Z,32.63
2022-11-09T00:17:35.339Z,31.73
2022-11-09T00:17:47.913Z,31.23
2022-11-09T00:18:02.702Z,31.17
2022-11-09T00:18:16.671Z,30.35
2022-11-09T00:18:29.590Z,30.60
2022-11-09T00:18:47.340Z,30.92
2022-11-09T00:18:59.977Z,30.83
2022-11-09T00:19:13.329Z,31.23
2022-11-09T00:19:26.736Z,31.40
2022-11-09T00:19:39.325Z,30.90
2022-11-09T00:19:51.883Z,30.52
2022-11-09T00:20:06.505Z,30.05
2022-11-09T00:20:19.159Z,29.67
2022-11-09T00:20:31.764Z,30.83
2022-11-09T00:20:47.509Z,30.75
2022-11-09T00:21:05.871Z,30.25
2022-11-09T00:21:21.925Z,29.96
2022-11-09T00:21:34.802Z,28.30
2022-11-09T00:21:47.369Z,26.30
2022-11-09T00:21:59.963Z,24.08
2022-11-09T00:22:12.570Z,22.88
2022-11-09T00:22:25.178Z,23.08
2022-11-09T00:22:37.762Z,24.05
2022-11-09T00:22:51.455Z,24.10
2022-11-09T00:23:04.040Z,25.15
2022-11-09T00:23:17.124Z,25.80
2022-11-09T00:23:30.200Z,26.40
2022-11-09T00:23:43.085Z,26.05
2022-11-09T00:23:56.946Z,25.65
2022-11-09T00:24:11.580Z,25.65
2022-11-09T00:24:24.459Z,25.50
2022-11-09T00:24:37.120Z,24.52
2022-11-09T00:24:49.749Z,24.48
2022-11-09T00:25:02.336Z,24.77
2022-11-09T00:25:15.539Z,25.23
2022-11-09T00:25:28.182Z,25.90
2022-11-09T00:25:41.791Z,25.77
2022-11-09T00:25:54.400Z,25.20
2022-11-09T00:26:09.351Z,25.23
2022-11-09T00:26:22.310Z,25.80
2022-11-09T00:26:34.872Z,25.05
2022-11-09T00:26:47.488Z,24.02
2022-11-09T00:27:00.092Z,23.75
2022-11-09T00:27:17.354Z,24.17
2022-11-09T00:27:31.289Z,24.58
2022-11-09T00:27:43.875Z,24.60
2022-11-09T00:27:56.525Z,24.77
2022-11-09T00:28:09.201Z,25.15
2022-11-09T00:28:21.786Z,25.08
2022-11-09T00:28:34.728Z,25.33
2022-11-09T00:28:47.739Z,24.40
2022-11-09T00:29:01.365Z,24.27
2022-11-09T00:29:14.359Z,24.80
2022-11-09T00:29:26.940Z,24.98
2022-11-09T00:29:39.518Z,24.88
2022-11-09T00:29:52.124Z,25.13
2022-11-09T00:30:05.751Z,25.30
2022-11-09T00:30:18.515Z,24.02
2022-11-09T00:30:32.110Z,22.55
2022-11-09T00:30:44.747Z,22.50
2022-11-09T00:30:59.685Z,22.73
2022-11-09T00:31:14.149Z,22.85
2022-11-09T00:31:26.753Z,22.73
2022-11-09T00:31:40.358Z,22.45
2022-11-09T00:31:52.914Z,22.38
2022-11-09T00:32:06.203Z,22.48
2022-11-09T00:32:18.839Z,22.90
2022-11-09T00:32:31.538Z,22.92
2022-11-09T00:32:44.685Z,22.63
2022-11-09T00:32:57.347Z,23.00
2022-11-09T00:33:12.302Z,23.05
2022-11-09T00:33:26.389Z,22.67
2022-11-09T00:33:39.432Z,22.23
2022-11-09T00:33:54.021Z,22.55
2022-11-09T00:34:06.648Z,22.85
2022-11-09T00:34:20.489Z,22.63
2022-11-09T00:34:33.096Z,21.98
2022-11-09T00:34:45.739Z,21.77
2022-11-09T00:34:58.356Z,22.35
2022-11-09T00:35:10.961Z,22.73
2022-11-09T00:35:23.554Z,23.05
2022-11-09T00:35:38.262Z,22.92
2022-11-09T00:35:51.870Z,22.58
2022-11-09T00:36:07.487Z,22.60
2022-11-09T00:36:21.150Z,21.92
2022-11-09T00:36:33.705Z,21.80
2022-11-09T00:36:46.358Z,21.75
2022-11-09T00:36:58.972Z,21.42
2022-11-09T00:37:11.541Z,21.73
2022-11-09T00:37:25.185Z,21.50
2022-11-09T00:37:37.832Z,21.50
2022-11-09T00:37:50.459Z,21.83
2022-11-09T00:38:03.131Z,22.00
2022-11-09T00:38:15.785Z,22.17
2022-11-09T00:38:28.446Z,21.95
2022-11-09T00:38:41.085Z,22.02
2022-11-09T00:38:56.613Z,21.52
2022-11-09T00:39:09.189Z,21.00
2022-11-09T00:39:22.022Z,21.15
2022-11-09T00:39:34.652Z,21.08
2022-11-09T00:39:47.394Z,21.45
2022-11-09T00:40:00.060Z,21.63
2022-11-09T00:40:13.269Z,21.48
2022-11-09T00:40:25.866Z,21.45
2022-11-09T00:40:39.561Z,21.70
2022-11-09T00:40:52.138Z,22.20
2022-11-09T00:41:06.040Z,22.73
2022-11-09T00:41:19.423Z,22.92
2022-11-09T00:41:32.057Z,23.38
2022-11-09T00:41:45.615Z,23.05
2022-11-09T00:41:58.250Z,22.58
2022-11-09T00:42:10.839Z,21.55
2022-11-09T00:42:23.435Z,21.83
2022-11-09T00:42:36.009Z,22.90
2022-11-09T00:42:48.597Z,23.83
2022-11-09T00:43:01.183Z,23.88
2022-11-09T00:43:14.869Z,23.77
2022-11-09T00:43:27.747Z,23.33
2022-11-09T00:43:41.171Z,22.92
2022-11-09T00:43:54.454Z,22.98
2022-11-09T00:44:07.192Z,23.77
2022-11-09T00:44:21.213Z,25.17
2022-11-09T00:44:33.912Z,25.80
2022-11-09T00:44:46.488Z,26.10
2022-11-09T00:44:59.083Z,26.88
2022-11-09T00:45:11.787Z,27.15
2022-11-09T00:45:24.437Z,28.75
2022-11-09T00:45:37.064Z,29.52
2022-11-09T00:45:50.618Z,30.38
2022-11-09T00:46:03.654Z,31.70
2022-11-09T00:46:17.001Z,32.30
2022-11-09T00:46:29.820Z,32.83
2022-11-09T00:46:42.584Z,32.60
2022-11-09T00:46:56.151Z,31.50
2022-11-09T00:47:08.730Z,29.80
2022-11-09T00:47:21.317Z,28.58
2022-11-09T00:47:33.914Z,27.90
2022-11-09T00:47:46.519Z,27.77
2022-11-09T00:47:59.125Z,27.23
2022-11-09T00:48:11.720Z,27.05
2022-11-09T00:48:25.367Z,28.13
2022-11-09T00:48:39.403Z,29.05
2022-11-09T00:48:51.958Z,28.70
2022-11-09T00:49:04.605Z,28.67
2022-11-09T00:49:17.511Z,29.33
2022-11-09T00:49:30.079Z,29.95
2022-11-09T00:49:42.687Z,29.35
2022-11-09T00:49:56.891Z,28.60
2022-11-09T00:50:10.077Z,29.40
2022-11-09T00:50:22.659Z,29.90
2022-11-09T00:50:35.240Z,30.30
2022-11-09T00:50:50.008Z,30.38
2022-11-09T00:51:03.226Z,30.02
2022-11-09T00:51:16.850Z,30.35
2022-11-09T00:51:29.476Z,30.27
2022-11-09T00:51:42.062Z,31.13
2022-11-09T00:51:54.754Z,31.95
2022-11-09T00:52:07.337Z,31.52
2022-11-09T00:52:19.898Z,31.42
2022-11-09T00:52:33.537Z,30.50
2022-11-09T00:52:46.126Z,29.90
2022-11-09T00:52:58.840Z,29.85
2022-11-09T00:53:11.423Z,29.45
2022-11-09T00:53:24.986Z,29.52
2022-11-09T00:53:37.914Z,29.70
2022-11-09T00:53:54.410Z,29.75
2022-11-09T00:54:08.320Z,29.45
2022-11-09T00:54:21.223Z,29.13
2022-11-09T00:54:33.875Z,30.08
2022-11-09T00:54:46.469Z,30.67
2022-11-09T00:54:59.104Z,30.38
2022-11-09T00:55:11.677Z,29.77
2022-11-09T00:55:24.533Z,29.15
2022-11-09T00:55:37.122Z,29.25
2022-11-09T00:55:58.101Z,29.58
2022-11-09T00:56:12.249Z,29.77
2022-11-09T00:56:25.223Z,30.92
2022-11-09T00:56:37.823Z,30.08
2022-11-09T00:56:50.431Z,29.45
2022-11-09T00:57:03.016Z,29.35
2022-11-09T00:57:15.716Z,29.63
2022-11-09T00:57:29.295Z,29.10
2022-11-09T00:57:41.898Z,29.20
2022-11-09T00:57:54.590Z,29.20
2022-11-09T00:58:07.167Z,28.90
2022-11-09T00:58:19.780Z,29.33
2022-11-09T00:58:34.155Z,29.27
2022-11-09T00:58:47.720Z,29.15
2022-11-09T00:59:00.311Z,29.10
2022-11-09T00:59:13.222Z,28.92
2022-11-09T00:59:25.820Z,29.30
2022-11-09T00:59:38.422Z,29.50
2022-11-09T00:59:51.992Z,30.00
2022-11-09T01:00:06.398Z,30.35
2022-11-09T01:00:20.578Z,30.73
2022-11-09T01:00:33.170Z,30.00
2022-11-09T01:00:45.771Z,29.38
2022-11-09T01:00:59.686Z,29.15
2022-11-09T01:01:14.354Z,29.23
2022-11-09T01:01:28.443Z,29.13
2022-11-09T01:01:41.088Z,29.15
2022-11-09T01:01:53.758Z,27.17
2022-11-09T01:02:06.401Z,25.65
2022-11-09T01:02:19.217Z,26.90
2022-11-09T01:02:31.811Z,28.35
2022-11-09T01:02:45.497Z,28.58
2022-11-09T01:02:58.183Z,29.02
2022-11-09T01:03:10.765Z,29.80
2022-11-09T01:03:24.323Z,29.60
2022-11-09T01:03:37.322Z,28.95
2022-11-09T01:03:52.634Z,28.50
2022-11-09T01:04:05.243Z,28.50
2022-11-09T01:04:18.256Z,28.45
2022-11-09T01:04:30.842Z,27.73
2022-11-09T01:04:43.424Z,27.80
2022-11-09T01:04:56.220Z,28.20
2022-11-09T01:05:09.123Z,27.63
2022-11-09T01:05:21.749Z,28.30
2022-11-09T01:05:35.342Z,29.33
2022-11-09T01:05:48.010Z,28.50
2022-11-09T01:06:00.774Z,28.20
2022-11-09T01:06:15.996Z,28.42
2022-11-09T01:06:28.581Z,28.83
2022-11-09T01:06:41.219Z,28.77
2022-11-09T01:06:54.956Z,28.45
2022-11-09T01:07:08.090Z,28.02
2022-11-09T01:07:20.819Z,28.48
2022-11-09T01:07:33.506Z,28.17
2022-11-09T01:07:46.148Z,28.95
2022-11-09T01:07:58.712Z,29.50
2022-11-09T01:08:11.733Z,29.95
2022-11-09T01:08:25.292Z,30.25
2022-11-09T01:08:37.874Z,30.73
2022-11-09T01:08:51.126Z,29.98
2022-11-09T01:09:03.963Z,29.88
2022-11-09T01:09:17.096Z,29.25
2022-11-09T01:09:29.914Z,29.55
2022-11-09T01:09:43.554Z,28.98
2022-11-09T01:09:56.130Z,29.77
2022-11-09T01:10:09.338Z,30.38
2022-11-09T01:10:21.938Z,30.63
2022-11-09T01:10:35.127Z,30.92
2022-11-09T01:10:49.044Z,31.08
2022-11-09T01:11:05.737Z,31.70
2022-11-09T01:11:20.844Z,32.22
2022-11-09T01:11:33.495Z,31.08
2022-11-09T01:11:46.116Z,31.33
2022-11-09T01:11:58.825Z,31.63
2022-11-09T01:12:11.422Z,31.55
2022-11-09T01:12:24.024Z,31.05
2022-11-09T01:12:36.613Z,30.85
2022-11-09T01:12:50.191Z,30.33
2022-11-09T01:13:02.798Z,30.12
2022-11-09T01:13:17.714Z,29.55
2022-11-09T01:13:30.555Z,29.55
2022-11-09T01:13:43.155Z,29.50
2022-11-09T01:13:56.956Z,29.55
2022-11-09T01:14:10.438Z,30.38
2022-11-09T01:14:23.044Z,31.48
2022-11-09T01:14:36.731Z,31.48
2022-11-09T01:14:49.361Z,30.10
2022-11-09T01:15:01.979Z,29.23
2022-11-09T01:15:14.560Z,29.50
2022-11-09T01:15:28.507Z,29.05
2022-11-09T01:15:42.820Z,29.67
2022-11-09T01:15:55.399Z,30.23
2022-11-09T01:16:11.062Z,30.90
2022-11-09T01:16:24.456Z,32.28
2022-11-09T01:16:37.258Z,31.52
2022-11-09T01:16:50.842Z,30.50
2022-11-09T01:17:03.495Z,30.70
2022-11-09T01:17:16.058Z,31.05
2022-11-09T01:17:28.948Z,30.45
2022-11-09T01:17:41.568Z,29.77
2022-11-09T01:17:54.150Z,29.83
2022-11-09T01:18:06.795Z,30.95
2022-11-09T01:18:22.301Z,31.67
2022-11-09T01:18:35.319Z,31.73
2022-11-09T01:18:48.128Z,31.55
2022-11-09T01:19:02.396Z,30.50
2022-11-09T01:19:14.970Z,30.08
2022-11-09T01:19:29.948Z,30.58
2022-11-09T01:19:42.570Z,31.70
2022-11-09T01:19:55.163Z,32.45
2022-11-09T01:20:08.800Z,31.27
2022-11-09T01:20:21.391Z,30.52
2022-11-09T01:20:33.966Z,30.27
2022-11-09T01:20:49.098Z,29.98
2022-11-09T01:21:04.380Z,30.08
2022-11-09T01:21:16.978Z,30.25
2022-11-09T01:21:29.691Z,31.13
2022-11-09T01:21:42.305Z,31.08
2022-11-09T01:21:54.846Z,30.70
2022-11-09T01:22:08.414Z,30.73
2022-11-09T01:22:20.991Z,31.23
2022-11-09T01:22:33.631Z,31.35
2022-11-09T01:22:46.182Z,31.50
2022-11-09T01:22:58.768Z,30.52
2022-11-09T01:23:12.774Z,29.58
2022-11-09T01:23:25.516Z,30.35
2022-11-09T01:23:39.890Z,31.25
2022-11-09T01:23:52.781Z,29.80
2022-11-09T01:24:05.999Z,28.77
2022-11-09T01:24:18.726Z,29.00
2022-11-09T01:24:31.284Z,29.70
2022-11-09T01:24:43.911Z,29.63
2022-11-09T01:24:57.448Z,29.38
2022-11-09T01:25:10.091Z,30.02
2022-11-09T01:25:22.662Z,30.52
2022-11-09T01:25:35.578Z,29.95
2022-11-09T01:25:48.162Z,29.95
2022-11-09T01:26:01.937Z,29.83
2022-11-09T01:26:15.842Z,28.92
2022-11-09T01:26:30.337Z,28.15
2022-11-09T01:26:42.947Z,28.45
2022-11-09T01:26:55.551Z,28.73
2022-11-09T01:27:08.119Z,28.08
2022-11-09T01:27:20.702Z,26.52
2022-11-09T01:27:33.515Z,26.27
2022-11-09T01:27:46.078Z,28.10
2022-11-09T01:27:59.373Z,29.90
2022-11-09T01:28:15.878Z,29.85
2022-11-09T01:28:28.467Z,29.17
2022-11-09T01:28:42.004Z,28.77
2022-11-09T01:28:54.749Z,27.88
2022-11-09T01:29:08.346Z,27.17
2022-11-09T01:29:20.914Z,26.90
2022-11-09T01:29:33.527Z,27.35
2022-11-09T01:29:46.103Z,27.48
2022-11-09T01:29:58.726Z,27.02
2022-11-09T01:30:13.498Z,27.05
2022-11-09T01:30:26.106Z,27.48
2022-11-09T01:30:40.976Z,28.23
2022-11-09T01:30:54.211Z,27.48
2022-11-09T01:31:15.581Z,26.83
2022-11-09T01:31:28.143Z,27.30
2022-11-09T01:31:40.722Z,26.50
2022-11-09T01:31:54.930Z,25.50
2022-11-09T01:32:07.510Z,24.73
2022-11-09T01:32:21.054Z,24.77
2022-11-09T01:32:33.713Z,25.55
2022-11-09T01:32:46.261Z,26.77
2022-11-09T01:32:58.842Z,27.17
2022-11-09T01:33:12.444Z,26.73
2022-11-09T01:33:25.287Z,25.88
2022-11-09T01:33:39.098Z,26.30
2022-11-09T01:33:51.722Z,25.58
2022-11-09T01:34:05.683Z,24.88
2022-11-09T01:34:18.555Z,25.02
2022-11-09T01:34:31.640Z,25.60
2022-11-09T01:34:44.982Z,25.98
2022-11-09T01:34:58.634Z,26.52
2022-11-09T01:35:11.229Z,26.38
2022-11-09T01:35:23.811Z,25.17
2022-11-09T01:35:37.984Z,24.58
2022-11-09T01:35:50.647Z,24.33
2022-11-09T01:36:04.343Z,24.75
2022-11-09T01:36:20.198Z,24.65
2022-11-09T01:36:32.773Z,25.63
2022-11-09T01:36:45.360Z,26.00
2022-11-09T01:36:57.967Z,25.70
2022-11-09T01:37:10.550Z,25.85
2022-11-09T01:37:23.212Z,25.85
2022-11-09T01:37:35.832Z,25.75
2022-11-09T01:37:49.414Z,25.65
2022-11-09T01:38:02.980Z,25.27
2022-11-09T01:38:15.863Z,25.52
2022-11-09T01:38:28.480Z,25.25
2022-11-09T01:38:41.877Z,25.00
2022-11-09T01:38:55.432Z,24.98
2022-11-09T01:39:08.014Z,25.05
2022-11-09T01:39:21.077Z,25.83
2022-11-09T01:39:33.762Z,25.52
2022-11-09T01:39:46.378Z,25.38
2022-11-09T01:39:58.958Z,25.17
2022-11-09T01:40:12.552Z,25.02
2022-11-09T01:40:25.162Z,24.88
2022-11-09T01:40:40.611Z,25.25
2022-11-09T01:40:53.207Z,25.45
2022-11-09T01:41:06.764Z,25.70
2022-11-09T01:41:22.514Z,25.88
2022-11-09T01:41:35.078Z,25.88
2022-11-09T01:41:49.022Z,25.60
2022-11-09T01:42:01.626Z,24.95
2022-11-09T01:42:14.805Z,25.05
2022-11-09T01:42:27.428Z,25.85
2022-11-09T01:42:40.043Z,25.42
2022-11-09T01:42:52.623Z,25.17
2022-11-09T01:43:16.060Z,25.30
2022-11-09T01:43:29.881Z,24.63
2022-11-09T01:43:43.051Z,24.40
2022-11-09T01:44:07.663Z,24.13
2022-11-09T01:44:20.732Z,25.20
2022-11-09T01:44:35.570Z,25.35
2022-11-09T01:44:49.132Z,24.42
2022-11-09T01:45:21.391Z,24.33
2022-11-09T01:45:33.997Z,24.48
2022-11-09T01:45:49.133Z,23.98
2022-11-09T01:46:06.871Z,23.67
2022-11-09T01:46:23.701Z,23.75
2022-11-09T01:46:45.048Z,23.75
2022-11-09T01:47:00.738Z,24.35
2022-11-09T01:47:22.040Z,24.67
2022-11-09T01:47:35.123Z,24.13
2022-11-09T01:47:52.744Z,24.10
2022-11-09T01:48:11.395Z,23.55
2022-11-09T01:48:34.875Z,23.65
2022-11-09T01:48:54.670Z,23.70
2022-11-09T01:49:13.938Z,24.27
2022-11-09T01:49:41.031Z,24.98
2022-11-09T01:49:59.042Z,23.92
2022-11-09T01:50:14.980Z,24.33
2022-11-09T01:50:38.410Z,24.40
2022-11-09T01:50:56.022Z,24.23
2022-11-09T01:51:13.708Z,24.00
2022-11-09T01:51:32.972Z,24.27
2022-11-09T01:51:50.651Z,24.20
2022-11-09T01:52:06.626Z,24.17
2022-11-09T01:52:26.026Z,24.27
2022-11-09T01:52:43.824Z,24.45
2022-11-09T01:52:57.052Z,24.02
2022-11-09T01:53:16.626Z,24.40
2022-11-09T01:53:34.588Z,24.33
2022-11-09T01:53:51.763Z,23.70
2022-11-09T01:54:07.712Z,24.33
2022-11-09T01:54:23.610Z,24.88
2022-11-09T01:54:41.074Z,24.60
2022-11-09T01:54:59.147Z,24.88
2022-11-09T01:55:16.070Z,25.02
2022-11-09T01:55:29.384Z,25.45
2022-11-09T01:55:43.762Z,24.77
2022-11-09T01:56:00.666Z,23.75
2022-11-09T01:56:14.966Z,24.00
2022-11-09T01:56:29.528Z,24.38
2022-11-09T01:56:43.520Z,24.38
2022-11-09T01:57:00.265Z,24.33
2022-11-09T01:57:25.113Z,24.25
2022-11-09T01:57:42.027Z,25.05
2022-11-09T01:57:59.046Z,25.02
2022-11-09T01:58:16.151Z,25.02
2022-11-09T01:58:32.831Z,25.02
2022-11-09T01:58:49.142Z,25.10
2022-11-09T01:59:05.867Z,25.42
2022-11-09T01:59:23.315Z,25.70
2022-11-09T01:59:43.057Z,24.98
2022-11-09T02:00:01.290Z,25.02
2022-11-09T02:00:15.996Z,25.10
2022-11-09T02:00:29.934Z,24.08
2022-11-09T02:00:47.436Z,23.90
2022-11-09T02:01:01.563Z,24.23
2022-11-09T02:01:15.911Z,24.33
2022-11-09T02:01:29.087Z,24.73
2022-11-09T02:01:43.073Z,25.48
2022-11-09T02:01:56.686Z,25.38
2022-11-09T02:02:11.500Z,24.73
2022-11-09T02:02:24.900Z,24.98
2022-11-09T02:02:41.402Z,25.08
2022-11-09T02:02:58.696Z,25.30
2022-11-09T02:03:15.571Z,25.35
2022-11-09T02:03:31.981Z,25.17
2022-11-09T02:03:51.846Z,24.90
2022-11-09T02:04:08.421Z,25.15
2022-11-09T02:04:25.200Z,25.83
2022-11-09T02:04:42.932Z,25.65
2022-11-09T02:04:59.868Z,25.13
2022-11-09T02:05:16.962Z,25.10
2022-11-09T02:05:34.934Z,24.75
2022-11-09T02:05:49.718Z,24.83
2022-11-09T02:06:06.041Z,25.10
2022-11-09T02:06:20.649Z,25.10
2022-11-09T02:06:33.713Z,25.13
2022-11-09T02:06:48.960Z,24.70
2022-11-09T02:07:02.141Z,23.90
2022-11-09T02:07:15.102Z,24.45
2022-11-09T02:07:28.583Z,24.95
2022-11-09T02:07:42.875Z,25.00
2022-11-09T02:07:56.106Z,24.90
2022-11-09T02:08:10.571Z,24.42
2022-11-09T02:08:26.298Z,24.70
2022-11-09T02:08:40.131Z,24.92
2022-11-09T02:08:56.846Z,24.48
2022-11-09T02:09:16.614Z,24.33
2022-11-09T02:09:37.742Z,24.33
2022-11-09T02:09:57.878Z,23.90
2022-11-09T02:10:14.814Z,24.02
2022-11-09T02:10:31.654Z,24.75
2022-11-09T02:10:50.330Z,24.13
2022-11-09T02:11:07.719Z,23.85
2022-11-09T02:11:23.182Z,24.17
2022-11-09T02:11:38.002Z,24.83
2022-11-09T02:11:50.594Z,23.77
2022-11-09T02:12:03.486Z,22.85
2022-11-09T02:12:17.845Z,22.92
2022-11-09T02:12:33.612Z,22.85
2022-11-09T02:12:46.728Z,22.60
2022-11-09T02:13:01.575Z,23.63
2022-11-09T02:13:17.697Z,24.58
2022-11-09T02:13:32.918Z,24.48
2022-11-09T02:13:49.321Z,24.25
2022-11-09T02:14:04.206Z,24.05
2022-11-09T02:14:18.773Z,24.30
2022-11-09T02:14:33.262Z,24.40
2022-11-09T02:14:47.790Z,24.10
2022-11-09T02:15:03.674Z,24.35
2022-11-09T02:15:16.570Z,24.50
2022-11-09T02:15:29.312Z,24.45
2022-11-09T02:15:45.677Z,24.50
2022-11-09T02:16:00.162Z,24.88
2022-11-09T02:16:14.950Z,24.92
2022-11-09T02:16:28.360Z,24.63
2022-11-09T02:16:41.902Z,25.05
2022-11-09T02:16:54.700Z,25.45
2022-11-09T02:17:08.179Z,25.15
2022-11-09T02:17:22.932Z,25.05
2022-11-09T02:17:36.493Z,24.98
2022-11-09T02:17:53.630Z,25.02
2022-11-09T02:18:07.752Z,24.63
2022-11-09T02:18:21.568Z,23.98
2022-11-09T02:18:35.017Z,23.85
2022-11-09T02:18:53.304Z,24.25
2022-11-09T02:19:05.869Z,25.17
2022-11-09T02:19:18.445Z,25.00
2022-11-09T02:19:32.399Z,24.85
2022-11-09T02:19:44.986Z,24.63
2022-11-09T02:19:58.222Z,24.42
2022-11-09T02:20:13.624Z,24.77
2022-11-09T02:20:29.431Z,24.70
2022-11-09T02:20:47.481Z,23.85
2022-11-09T02:21:00.247Z,24.45
2022-11-09T02:21:12.863Z,25.00
2022-11-09T02:21:27.614Z,25.05
2022-11-09T02:21:41.337Z,24.50
2022-11-09T02:21:54.162Z,24.48
2022-11-09T02:22:07.031Z,24.60
2022-11-09T02:22:19.659Z,24.63
2022-11-09T02:22:32.503Z,24.35
2022-11-09T02:22:45.475Z,24.58
2022-11-09T02:22:58.276Z,24.50
2022-11-09T02:23:11.184Z,24.23
2022-11-09T02:23:25.492Z,23.58
2022-11-09T02:23:39.378Z,23.92
2022-11-09T02:23:52.354Z,24.60
2022-11-09T02:24:06.272Z,25.05
2022-11-09T02:24:19.323Z,25.55
2022-11-09T02:24:33.034Z,25.85
2022-11-09T02:24:45.670Z,25.42
2022-11-09T02:24:58.284Z,25.02
2022-11-09T02:25:13.968Z,24.67
2022-11-09T02:25:26.523Z,24.73
2022-11-09T02:25:39.242Z,24.67
2022-11-09T02:25:56.828Z,24.83
2022-11-09T02:26:16.653Z,24.77
2022-11-09T02:26:34.622Z,24.60
2022-11-09T02:26:49.449Z,24.45
2022-11-09T02:27:02.095Z,24.40
2022-11-09T02:27:14.797Z,24.42
2022-11-09T02:27:27.413Z,24.05
2022-11-09T02:27:40.406Z,23.83
2022-11-09T02:27:54.058Z,23.83
2022-11-09T02:28:07.549Z,23.85
2022-11-09T02:28:20.845Z,23.73
2022-11-09T02:28:36.272Z,23.75
2022-11-09T02:28:50.272Z,24.17
2022-11-09T02:29:06.279Z,24.42
2022-11-09T02:29:23.911Z,24.24
2022-11-09T02:29:39.094Z,23.90
2022-11-09T02:29:53.203Z,24.55
2022-11-09T02:30:07.114Z,25.35
2022-11-09T02:30:20.924Z,25.00
2022-11-09T02:30:35.732Z,23.98
2022-11-09T02:30:53.415Z,23.48
2022-11-09T02:31:10.805Z,23.77
2022-11-09T02:31:28.091Z,23.77
2022-11-09T02:31:44.919Z,24.05
2022-11-09T02:32:01.567Z,23.55
2022-11-09T02:32:20.816Z,23.92
2022-11-09T02:32:33.507Z,23.85
2022-11-09T02:32:46.284Z,23.67
2022-11-09T02:32:58.839Z,24.08
2022-11-09T02:33:11.706Z,23.80
2022-11-09T02:33:25.585Z,24.20
2022-11-09T02:33:44.446Z,23.77
2022-11-09T02:34:04.054Z,24.23
2022-11-09T02:34:18.436Z,24.73
2022-11-09T02:34:32.176Z,24.23
2022-11-09T02:34:44.775Z,24.40
2022-11-09T02:34:57.371Z,24.42
2022-11-09T02:35:10.495Z,24.17
2022-11-09T02:35:24.436Z,24.50
2022-11-09T02:35:37.021Z,24.73
2022-11-09T02:35:50.597Z,24.70
2022-11-09T02:36:03.279Z,25.15
2022-11-09T02:36:15.869Z,25.23
2022-11-09T02:36:28.490Z,24.95
2022-11-09T02:36:43.510Z,25.00
2022-11-09T02:36:56.152Z,25.50
2022-11-09T02:37:08.784Z,25.17
2022-11-09T02:37:26.886Z,25.00
2022-11-09T02:37:43.530Z,24.63
2022-11-09T02:37:56.132Z,24.23
2022-11-09T02:38:11.382Z,24.25
2022-11-09T02:38:23.972Z,24.05
2022-11-09T02:38:36.562Z,24.55
2022-11-09T02:38:50.539Z,24.90
2022-11-09T02:39:04.173Z,24.63
2022-11-09T02:39:19.727Z,24.40
2022-11-09T02:39:32.901Z,25.13
2022-11-09T02:39:46.507Z,25.15
2022-11-09T02:40:01.311Z,24.30
2022-11-09T02:40:18.592Z,24.23
2022-11-09T02:40:36.554Z,24.35
2022-11-09T02:40:52.342Z,23.88
2022-11-09T02:41:05.456Z,23.65
2022-11-09T02:41:19.103Z,23.40
2022-11-09T02:41:33.266Z,23.42
2022-11-09T02:41:50.537Z,23.80
2022-11-09T02:42:10.235Z,23.98
2022-11-09T02:42:24.019Z,23.88
2022-11-09T02:42:36.822Z,24.02
2022-11-09T02:42:49.409Z,24.27
2022-11-09T02:43:03.866Z,24.17
2022-11-09T02:43:18.564Z,24.13
2022-11-09T02:43:31.614Z,24.17
2022-11-09T02:43:44.284Z,24.05
2022-11-09T02:43:57.179Z,23.95
2022-11-09T02:44:10.692Z,24.20
2022-11-09T02:44:24.575Z,25.02
2022-11-09T02:44:41.024Z,24.75
2022-11-09T02:44:59.703Z,24.00
2022-11-09T02:45:12.404Z,24.70
2022-11-09T02:45:24.982Z,24.52
2022-11-09T02:45:38.051Z,23.90
2022-11-09T02:45:50.638Z,23.80
2022-11-09T02:46:03.310Z,23.48
2022-11-09T02:46:24.250Z,23.25
2022-11-09T02:46:37.379Z,24.35
2022-11-09T02:46:49.960Z,24.27
2022-11-09T02:47:02.599Z,24.02
2022-11-09T02:47:15.288Z,24.02
2022-11-09T02:47:27.940Z,23.60
2022-11-09T02:47:41.557Z,23.23
2022-11-09T02:47:54.591Z,23.52
2022-11-09T02:48:07.483Z,23.73
2022-11-09T02:48:20.075Z,23.25
2022-11-09T02:48:32.714Z,23.48
2022-11-09T02:48:45.297Z,23.52
2022-11-09T02:48:57.863Z,23.75
2022-11-09T02:49:10.705Z,23.88
2022-11-09T02:49:24.353Z,23.60
2022-11-09T02:49:37.028Z,23.83
2022-11-09T02:49:50.277Z,23.98
2022-11-09T02:50:03.114Z,24.05
2022-11-09T02:50:16.061Z,23.80
2022-11-09T02:50:30.058Z,24.25
2022-11-09T02:50:42.662Z,24.92
2022-11-09T02:50:56.282Z,24.52
2022-11-09T02:51:08.883Z,24.15
2022-11-09T02:51:21.505Z,24.65
2022-11-09T02:51:34.143Z,24.10
2022-11-09T02:51:46.982Z,23.80
2022-11-09T02:51:59.570Z,24.35
2022-11-09T02:52:12.158Z,24.40
2022-11-09T02:52:24.866Z,24.35
2022-11-09T02:52:38.468Z,24.25
2022-11-09T02:52:51.326Z,24.20
2022-11-09T02:53:04.443Z,23.67
2022-11-09T02:53:17.262Z,23.85
2022-11-09T02:53:30.031Z,24.13
2022-11-09T02:53:42.602Z,23.52
2022-11-09T02:53:55.386Z,23.00
2022-11-09T02:54:09.300Z,23.63
2022-11-09T02:54:21.909Z,24.10
2022-11-09T02:54:34.552Z,23.88
2022-11-09T02:54:47.845Z,23.90
2022-11-09T02:55:00.440Z,23.10
2022-11-09T02:55:13.126Z,22.55
2022-11-09T02:55:25.726Z,23.30
2022-11-09T02:55:38.281Z,24.08
2022-11-09T02:55:51.852Z,24.83
2022-11-09T02:56:04.886Z,23.65
2022-11-09T02:56:17.506Z,23.02
2022-11-09T02:56:30.064Z,23.48
2022-11-09T02:56:42.684Z,23.98
2022-11-09T02:56:55.296Z,24.27
2022-11-09T02:57:08.026Z,23.85
2022-11-09T02:57:20.582Z,23.83
2022-11-09T02:57:34.420Z,24.65
2022-11-09T02:57:47.150Z,24.45
2022-11-09T02:57:59.706Z,23.85
2022-11-09T02:58:12.270Z,23.40
2022-11-09T02:58:24.827Z,23.30
2022-11-09T02:58:37.422Z,23.73
2022-11-09T02:58:51.106Z,23.42
2022-11-09T02:59:04.121Z,23.27
2022-11-09T02:59:16.740Z,23.40
2022-11-09T02:59:29.323Z,23.42